createdAt,value
2023-01-15T00:01:30.021Z,8.27
2023-01-15T00:05:14.484Z,8.20
2023-01-15T00:08:57.621Z,8.12
2023-01-15T00:12:40.263Z,8.05
2023-01-15T00:16:24.943Z,7.97
2023-01-15T00:20:08.769Z,8.02
2023-01-15T00:24:10.807Z,8.02
2023-01-15T00:27:53.600Z,7.97
2023-01-15T00:31:36.742Z,8.00
2023-01-15T00:35:21.317Z,7.91
2023-01-15T00:39:05.470Z,7.90
2023-01-15T00:42:53.964Z,8.55
2023-01-15T00:46:38.893Z,9.40
2023-01-15T00:50:22.291Z,9.08
2023-01-15T00:54:06.756Z,8.79
2023-01-15T00:57:49.496Z,8.48
2023-01-15T01:01:32.676Z,8.32
2023-01-15T01:05:15.561Z,8.20
2023-01-15T01:08:58.737Z,7.99
2023-01-15T01:12:42.807Z,7.83
2023-01-15T01:16:30.396Z,7.74
2023-01-15T01:20:14.740Z,7.81
2023-01-15T01:23:59.403Z,7.77
2023-01-15T01:27:45.270Z,7.68
2023-01-15T01:31:28.206Z,7.61
2023-01-15T01:35:11.683Z,7.51
2023-01-15T01:38:54.324Z,7.44
2023-01-15T01:42:37.033Z,7.40
2023-01-15T01:46:21.875Z,7.38
2023-01-15T01:50:08.569Z,7.33
2023-01-15T01:53:51.266Z,7.34
2023-01-15T01:57:34.070Z,7.37
2023-01-15T02:01:17.401Z,7.39
2023-01-15T02:05:02.140Z,7.40
2023-01-15T02:08:45.098Z,7.36
2023-01-15T02:12:31.845Z,7.39
2023-01-15T02:16:17.962Z,7.37
2023-01-15T02:20:18.825Z,7.41
2023-01-15T02:24:11.348Z,7.44
2023-01-15T02:27:59.744Z,7.48
2023-01-15T02:31:44.558Z,7.52
2023-01-15T02:35:30.861Z,7.49
2023-01-15T02:39:15.513Z,7.48
2023-01-15T02:43:00.438Z,7.43
2023-01-15T02:46:45.487Z,7.37
2023-01-15T02:50:32.479Z,7.43
2023-01-15T02:54:16.921Z,7.42
2023-01-15T02:58:06.094Z,7.46
2023-01-15T03:01:52.495Z,7.48
2023-01-15T03:05:44.237Z,7.49
2023-01-15T03:09:28.632Z,7.47
2023-01-15T03:13:17.339Z,7.51
2023-01-15T03:17:02.835Z,7.55
2023-01-15T03:20:50.574Z,7.59
2023-01-15T03:24:34.951Z,7.64
2023-01-15T03:28:22.606Z,7.71
2023-01-15T03:32:06.027Z,7.78
2023-01-15T03:35:52.976Z,7.80
2023-01-15T03:39:35.810Z,7.82
2023-01-15T03:43:43.788Z,7.84
2023-01-15T03:47:34.836Z,7.85
2023-01-15T03:51:21.541Z,7.90
2023-01-15T03:55:11.598Z,7.86
2023-01-15T03:58:58.102Z,7.88
2023-01-15T04:02:41.524Z,7.90
2023-01-15T04:06:26.468Z,7.95
2023-01-15T04:10:10.827Z,7.95
2023-01-15T04:13:55.947Z,8.00
2023-01-15T04:17:38.714Z,7.97
2023-01-15T04:21:21.705Z,7.97
2023-01-15T04:25:04.559Z,8.00
2023-01-15T04:28:47.355Z,8.04
2023-01-15T04:32:31.670Z,8.04
2023-01-15T04:36:14.811Z,8.09
2023-01-15T04:39:57.456Z,8.12
2023-01-15T04:43:58.087Z,8.08
2023-01-15T04:47:42.302Z,8.09
2023-01-15T04:51:25.048Z,8.11
2023-01-15T04:55:08.180Z,8.10
2023-01-15T04:58:51.022Z,8.15
2023-01-15T05:02:33.824Z,8.17
2023-01-15T05:06:18.553Z,8.23
2023-01-15T05:10:04.234Z,8.29
2023-01-15T05:13:47.019Z,8.34
2023-01-15T05:17:29.738Z,8.35
2023-01-15T05:21:16.700Z,8.44
2023-01-15T05:25:00.731Z,8.53
2023-01-15T05:28:43.690Z,8.63
2023-01-15T05:32:26.443Z,8.75
2023-01-15T05:36:11.133Z,8.99
2023-01-15T05:39:53.775Z,9.04
2023-01-15T05:43:37.807Z,9.33
2023-01-15T05:47:20.493Z,9.61
2023-01-15T05:51:03.320Z,9.86
2023-01-15T05:54:45.998Z,10.09
2023-01-15T05:58:28.759Z,10.38
2023-01-15T06:02:12.826Z,10.62
2023-01-15T06:05:56.331Z,10.78
2023-01-15T06:09:39.269Z,10.75
2023-01-15T06:13:21.979Z,10.87
2023-01-15T06:17:04.642Z,10.91
2023-01-15T06:20:48.663Z,10.95
2023-01-15T06:24:31.379Z,11.05
2023-01-15T06:28:14.052Z,11.15
2023-01-15T06:31:56.696Z,11.26
2023-01-15T06:35:39.377Z,11.33
2023-01-15T06:39:23.443Z,11.36
2023-01-15T06:43:23.592Z,11.37
2023-01-15T06:47:23.643Z,11.44
2023-01-15T06:51:06.991Z,11.44
2023-01-15T06:54:51.126Z,11.44
2023-01-15T06:58:33.793Z,11.49
2023-01-15T07:02:17.902Z,11.50
2023-01-15T07:06:00.614Z,11.47
2023-01-15T07:09:43.612Z,11.46
2023-01-15T07:13:27.610Z,11.40
2023-01-15T07:17:10.298Z,11.46
2023-01-15T07:20:55.931Z,11.38
2023-01-15T07:24:38.604Z,11.40
2023-01-15T07:28:21.462Z,11.45
2023-01-15T07:32:06.090Z,11.48
2023-01-15T07:35:48.776Z,11.46
2023-01-15T07:39:32.427Z,11.55
2023-01-15T07:43:32.359Z,11.48
2023-01-15T07:47:36.948Z,11.54
2023-01-15T07:51:19.717Z,11.52
2023-01-15T07:55:03.888Z,11.54
2023-01-15T07:58:50.112Z,11.57
2023-01-15T08:02:34.122Z,11.54
2023-01-15T08:06:16.775Z,11.56
2023-01-15T08:09:59.415Z,11.59
2023-01-15T08:13:59.415Z,11.59
2023-01-15T08:17:45.466Z,11.68
2023-01-15T08:21:28.177Z,11.68
2023-01-15T08:25:12.901Z,11.72
2023-01-15T08:28:56.471Z,11.74
2023-01-15T08:32:39.405Z,11.75
2023-01-15T08:36:23.627Z,11.74
2023-01-15T08:40:07.918Z,11.86
2023-01-15T08:43:50.681Z,11.89
2023-01-15T08:47:33.411Z,11.92
2023-01-15T08:51:16.591Z,12.01
2023-01-15T08:55:00.600Z,12.04
2023-01-15T08:58:44.134Z,12.15
2023-01-15T09:02:27.801Z,12.17
2023-01-15T09:06:13.960Z,12.12
2023-01-15T09:09:56.756Z,12.21
2023-01-15T09:13:43.557Z,12.23
2023-01-15T09:17:28.050Z,12.31
2023-01-15T09:21:12.322Z,12.32
2023-01-15T09:24:56.115Z,12.38
2023-01-15T09:28:39.612Z,12.44
2023-01-15T09:32:25.443Z,12.53
2023-01-15T09:36:16.790Z,12.61
2023-01-15T09:40:02.314Z,12.74
2023-01-15T09:43:51.395Z,12.81
2023-01-15T09:47:38.365Z,12.87
2023-01-15T09:51:29.550Z,12.92
2023-01-15T09:55:16.147Z,12.93
2023-01-15T09:59:00.447Z,12.98
2023-01-15T10:02:47.343Z,13.01
2023-01-15T10:06:35.570Z,13.01
2023-01-15T10:10:21.372Z,12.20
2023-01-15T10:14:08.877Z,10.17
2023-01-15T10:17:54.964Z,8.81
2023-01-15T10:21:41.111Z,8.06
2023-01-15T10:25:28.462Z,7.54
2023-01-15T10:29:19.028Z,7.23
2023-01-15T10:33:14.679Z,6.79
2023-01-15T10:37:03.099Z,6.37
2023-01-15T10:41:21.605Z,6.11
2023-01-15T10:45:08.882Z,6.00
2023-01-15T10:48:56.114Z,5.99
2023-01-15T10:52:44.665Z,5.98
2023-01-15T10:56:33.159Z,5.92
2023-01-15T11:00:21.197Z,6.09
2023-01-15T11:04:07.165Z,6.06
2023-01-15T11:12:39.647Z,5.68
2023-01-15T11:16:44.374Z,5.58
2023-01-15T11:20:34.804Z,5.56
2023-01-15T11:24:19.935Z,5.50
2023-01-15T11:28:05.846Z,5.50
2023-01-15T11:31:49.122Z,5.49
2023-01-15T11:35:36.261Z,5.35
2023-01-15T11:39:26.868Z,5.21
2023-01-15T11:43:39.030Z,5.15
2023-01-15T11:47:38.841Z,5.11
2023-01-15T11:51:23.248Z,5.08
2023-01-15T11:55:12.635Z,5.18
2023-01-15T11:58:56.476Z,5.04
2023-01-15T12:02:41.571Z,4.97
2023-01-15T12:06:27.443Z,4.88
2023-01-15T12:10:18.998Z,4.94
2023-01-15T12:14:15.775Z,4.84
2023-01-15T12:18:27.106Z,4.95
2023-01-15T12:22:23.372Z,4.90
2023-01-15T12:26:10.265Z,4.98
2023-01-15T12:29:57.618Z,4.95
2023-01-15T12:33:44.534Z,4.84
2023-01-15T12:37:31.543Z,4.82
2023-01-15T12:41:16.027Z,4.82
2023-01-15T12:45:04.813Z,4.82
2023-01-15T12:48:54.377Z,4.84
2023-01-15T12:52:41.223Z,4.97
2023-01-15T12:56:29.123Z,5.17
2023-01-15T13:00:16.619Z,5.21
2023-01-15T13:04:12.355Z,5.18
2023-01-15T13:08:01.786Z,5.25
2023-01-15T13:11:44.582Z,5.30
2023-01-15T13:15:29.616Z,5.38
2023-01-15T13:19:22.696Z,5.31
2023-01-15T13:23:10.841Z,5.28
2023-01-15T13:27:14.073Z,5.20
2023-01-15T13:31:05.480Z,5.10
2023-01-15T13:34:51.374Z,5.15
2023-01-15T13:38:41.687Z,5.06
2023-01-15T13:42:35.281Z,4.99
2023-01-15T13:46:21.739Z,5.08
2023-01-15T13:50:07.155Z,5.04
2023-01-15T13:53:51.736Z,4.84
2023-01-15T13:57:36.687Z,4.84
2023-01-15T14:01:27.484Z,4.76
2023-01-15T14:05:18.803Z,4.85
2023-01-15T14:09:04.038Z,4.88
2023-01-15T14:12:53.365Z,4.82
2023-01-15T14:16:51.244Z,4.91
2023-01-15T14:20:48.569Z,4.84
2023-01-15T14:24:50.526Z,4.78
2023-01-15T14:28:47.266Z,4.73
2023-01-15T14:32:44.837Z,4.54
2023-01-15T14:36:30.110Z,4.35
2023-01-15T14:40:21.187Z,4.10
2023-01-15T14:44:04.191Z,3.88
2023-01-15T14:47:48.538Z,3.69
2023-01-15T14:51:33.258Z,3.40
2023-01-15T14:55:16.708Z,3.31
2023-01-15T14:59:04.492Z,3.32
2023-01-15T15:02:49.581Z,3.17
2023-01-15T15:06:32.408Z,3.06
2023-01-15T15:10:22.887Z,2.92
2023-01-15T15:14:08.139Z,2.86
2023-01-15T15:17:59.015Z,2.99
2023-01-15T15:21:43.264Z,3.69
2023-01-15T15:25:28.669Z,3.85
2023-01-15T15:29:15.863Z,3.98
2023-01-15T15:32:59.015Z,3.92
2023-01-15T15:36:41.800Z,3.77
2023-01-15T15:40:30.536Z,3.69
2023-01-15T15:44:36.145Z,3.62
2023-01-15T15:48:38.584Z,3.62
2023-01-15T15:52:24.135Z,3.63
2023-01-15T15:56:07.888Z,3.62
2023-01-15T15:59:53.419Z,3.69
2023-01-15T16:03:36.320Z,3.68
2023-01-15T16:07:25.865Z,3.72
2023-01-15T16:11:12.879Z,3.75
2023-01-15T16:14:57.883Z,3.79
2023-01-15T16:18:44.571Z,3.79
2023-01-15T16:22:27.469Z,3.84
2023-01-15T16:26:13.924Z,3.79
2023-01-15T16:29:57.980Z,3.74
2023-01-15T16:33:40.723Z,3.60
2023-01-15T16:37:27.623Z,3.57
2023-01-15T16:41:18.249Z,3.52
2023-01-15T16:45:03.981Z,3.52
2023-01-15T16:48:50.501Z,3.53
2023-01-15T16:52:45.395Z,3.43
2023-01-15T16:56:52.248Z,3.46
2023-01-15T17:00:36.305Z,3.45
2023-01-15T17:04:26.620Z,3.48
2023-01-15T17:08:17.289Z,3.42
2023-01-15T17:12:09.000Z,3.44
2023-01-15T17:16:05.463Z,3.51
2023-01-15T17:19:48.627Z,3.56
2023-01-15T17:23:35.545Z,3.51
2023-01-15T17:27:18.310Z,3.43
2023-01-15T17:31:03.273Z,3.40
2023-01-15T17:34:46.020Z,3.35
2023-01-15T17:38:28.762Z,3.36
2023-01-15T17:42:14.557Z,3.35
2023-01-15T17:45:58.189Z,3.36
2023-01-15T17:49:42.725Z,3.39
2023-01-15T17:53:25.419Z,3.35
2023-01-15T17:57:26.659Z,3.38
2023-01-15T18:01:33.482Z,3.33
2023-01-15T18:05:32.905Z,3.35
2023-01-15T18:09:15.771Z,3.37
2023-01-15T18:12:58.653Z,3.40
2023-01-15T18:16:42.042Z,3.37
2023-01-15T18:20:26.369Z,3.39
2023-01-15T18:24:11.616Z,3.43
2023-01-15T18:27:54.753Z,3.39
2023-01-15T18:31:39.195Z,3.35
2023-01-15T18:35:23.313Z,3.38
2023-01-15T18:39:07.925Z,3.48
2023-01-15T18:43:08.025Z,3.36
2023-01-15T18:46:53.558Z,3.39
2023-01-15T18:50:36.216Z,3.33
2023-01-15T18:54:20.272Z,3.33
2023-01-15T18:58:02.966Z,3.34
2023-01-15T19:01:46.646Z,3.32
2023-01-15T19:05:29.438Z,4.60
2023-01-15T19:09:13.895Z,4.44
2023-01-15T19:13:02.070Z,4.11
2023-01-15T19:17:02.791Z,3.96
2023-01-15T19:20:45.697Z,3.73
2023-01-15T19:24:30.392Z,3.63
2023-01-15T19:28:16.440Z,3.55
2023-01-15T19:31:59.452Z,3.51
2023-01-15T19:35:42.178Z,3.45
2023-01-15T19:39:25.639Z,3.36
2023-01-15T19:43:26.001Z,3.34
2023-01-15T19:47:30.531Z,3.27
2023-01-15T19:51:13.739Z,3.20
2023-01-15T19:54:56.451Z,3.15
2023-01-15T19:58:39.323Z,3.16
2023-01-15T20:02:24.962Z,3.02
2023-01-15T20:06:08.451Z,2.89
2023-01-15T20:09:51.125Z,2.85
2023-01-15T20:13:54.470Z,2.88
2023-01-15T20:17:38.510Z,2.87
2023-01-15T20:21:21.241Z,2.95
2023-01-15T20:25:03.945Z,2.86
2023-01-15T20:28:47.653Z,2.80
2023-01-15T20:32:30.489Z,2.75
2023-01-15T20:36:14.561Z,2.70
2023-01-15T20:39:57.701Z,2.66
2023-01-15T20:43:56.905Z,2.62
2023-01-15T20:47:58.998Z,2.68
2023-01-15T20:51:45.193Z,2.60
2023-01-15T20:55:34.042Z,2.50
2023-01-15T20:59:21.413Z,2.44
2023-01-15T21:03:04.854Z,2.45
2023-01-15T21:06:48.885Z,2.52
2023-01-15T21:10:35.084Z,2.54
2023-01-15T21:14:17.851Z,2.59
2023-01-15T21:18:00.595Z,2.47
2023-01-15T21:21:43.349Z,2.51
2023-01-15T21:25:27.406Z,2.57
2023-01-15T21:29:10.089Z,2.58
2023-01-15T21:32:52.759Z,2.55
2023-01-15T21:36:35.573Z,2.49
2023-01-15T21:40:18.881Z,2.33
2023-01-15T21:44:20.667Z,2.29
2023-01-15T21:48:03.489Z,2.25
2023-01-15T21:51:46.406Z,2.24
2023-01-15T21:55:29.345Z,2.31
2023-01-15T21:59:13.757Z,2.33
2023-01-15T22:02:58.665Z,2.31
2023-01-15T22:06:42.097Z,2.37
2023-01-15T22:10:26.522Z,2.40
2023-01-15T22:14:13.836Z,2.38
2023-01-15T22:17:57.675Z,2.40
2023-01-15T22:21:48.141Z,2.45
2023-01-15T22:25:30.894Z,2.41
2023-01-15T22:29:16.493Z,2.47
2023-01-15T22:33:01.173Z,2.49
2023-01-15T22:36:45.246Z,2.42
2023-01-15T22:40:28.607Z,2.31
2023-01-15T22:44:11.623Z,2.20
2023-01-15T22:47:57.379Z,2.18
2023-01-15T22:51:40.054Z,2.20
2023-01-15T22:55:22.748Z,2.31
2023-01-15T22:59:05.871Z,2.31
2023-01-15T23:03:04.958Z,2.35
2023-01-15T23:06:50.986Z,2.40
2023-01-15T23:10:33.839Z,2.40
2023-01-15T23:14:16.710Z,2.45
2023-01-15T23:17:59.675Z,2.43
2023-01-15T23:21:42.663Z,2.41
2023-01-15T23:25:26.873Z,2.36
2023-01-15T23:29:09.530Z,2.27
2023-01-15T23:32:52.531Z,2.24
2023-01-15T23:36:35.369Z,2.29
2023-01-15T23:40:18.194Z,2.36
2023-01-15T23:44:19.628Z,2.44
2023-01-15T23:48:02.419Z,2.45
2023-01-15T23:51:45.180Z,2.36
2023-01-15T23:55:27.923Z,2.30
2023-01-15T23:59:11.999Z,2.22
